sensor_id;sensor_type;location;lat;lon;timestamp;temperature;humidity
37052;DHT22;22964;52.272;13.356;2023-07-31T00:01:07;20.50;62.00
37052;DHT22;22964;52.272;13.356;2023-07-31T00:03:32;20.50;62.10
37052;DHT22;22964;52.272;13.356;2023-07-31T00:05:58;20.50;62.20
37052;DHT22;22964;52.272;13.356;2023-07-31T00:08:24;20.40;62.20
37052;DHT22;22964;52.272;13.356;2023-07-31T00:10:52;20.40;62.20
37052;DHT22;22964;52.272;13.356;2023-07-31T00:13:18;20.40;62.50
37052;DHT22;22964;52.272;13.356;2023-07-31T00:15:44;20.40;62.50
37052;DHT22;22964;52.272;13.356;2023-07-31T00:18:09;20.30;62.70
37052;DHT22;22964;52.272;13.356;2023-07-31T00:20:35;20.30;62.90
37052;DHT22;22964;52.272;13.356;2023-07-31T00:23:01;20.30;63.20
37052;DHT22;22964;52.272;13.356;2023-07-31T00:25:26;20.30;63.30
37052;DHT22;22964;52.272;13.356;2023-07-31T00:27:52;20.30;63.50
37052;DHT22;22964;52.272;13.356;2023-07-31T00:30:18;20.30;63.60
37052;DHT22;22964;52.272;13.356;2023-07-31T00:32:43;20.20;63.60
37052;DHT22;22964;52.272;13.356;2023-07-31T00:35:09;20.20;63.50
37052;DHT22;22964;52.272;13.356;2023-07-31T00:37:35;20.20;63.50
37052;DHT22;22964;52.272;13.356;2023-07-31T00:40:01;20.20;63.60
37052;DHT22;22964;52.272;13.356;2023-07-31T00:42:29;20.10;63.70
37052;DHT22;22964;52.272;13.356;2023-07-31T00:44:55;20.10;63.80
37052;DHT22;22964;52.272;13.356;2023-07-31T00:47:20;20.10;63.90
37052;DHT22;22964;52.272;13.356;2023-07-31T00:49:46;20.10;64.20
37052;DHT22;22964;52.272;13.356;2023-07-31T00:52:13;20.10;64.40
37052;DHT22;22964;52.272;13.356;2023-07-31T00:54:39;20.10;64.50
37052;DHT22;22964;52.272;13.356;2023-07-31T00:57:05;20.10;64.70
37052;DHT22;22964;52.272;13.356;2023-07-31T00:59:33;20.10;65.00
37052;DHT22;22964;52.272;13.356;2023-07-31T01:01:58;20.10;65.10
37052;DHT22;22964;52.272;13.356;2023-07-31T01:04:24;20.10;65.20
37052;DHT22;22964;52.272;13.356;2023-07-31T01:07:15;20.10;65.30
37052;DHT22;22964;52.272;13.356;2023-07-31T01:10:20;20.10;66.50
37052;DHT22;22964;52.272;13.356;2023-07-31T01:12:38;20.10;65.70
37052;DHT22;22964;52.272;13.356;2023-07-31T01:15:06;20.10;65.40
37052;DHT22;22964;52.272;13.356;2023-07-31T01:17:36;20.10;65.50
37052;DHT22;22964;52.272;13.356;2023-07-31T01:20:05;20.10;65.40
37052;DHT22;22964;52.272;13.356;2023-07-31T01:23:41;20.20;65.70
37052;DHT22;22964;52.272;13.356;2023-07-31T01:31:29;20.20;65.70
37052;DHT22;22964;52.272;13.356;2023-07-31T01:33:57;20.20;65.10
37052;DHT22;22964;52.272;13.356;2023-07-31T01:36:25;20.20;65.10
37052;DHT22;22964;52.272;13.356;2023-07-31T01:38:51;20.20;64.90
37052;DHT22;22964;52.272;13.356;2023-07-31T01:41:17;20.20;64.90
37052;DHT22;22964;52.272;13.356;2023-07-31T01:43:47;20.20;65.00
37052;DHT22;22964;52.272;13.356;2023-07-31T01:46:12;20.20;65.10
37052;DHT22;22964;52.272;13.356;2023-07-31T01:48:39;20.20;65.20
37052;DHT22;22964;52.272;13.356;2023-07-31T01:51:05;20.20;65.40
37052;DHT22;22964;52.272;13.356;2023-07-31T01:53:31;20.20;65.50
37052;DHT22;22964;52.272;13.356;2023-07-31T01:55:57;20.20;65.70
37052;DHT22;22964;52.272;13.356;2023-07-31T01:58:22;20.20;65.80
37052;DHT22;22964;52.272;13.356;2023-07-31T02:00:48;20.20;65.90
37052;DHT22;22964;52.272;13.356;2023-07-31T02:03:14;20.20;65.90
37052;DHT22;22964;52.272;13.356;2023-07-31T02:05:47;20.20;65.90
37052;DHT22;22964;52.272;13.356;2023-07-31T02:08:13;20.20;66.60
37052;DHT22;22964;52.272;13.356;2023-07-31T02:10:39;20.20;66.30
37052;DHT22;22964;52.272;13.356;2023-07-31T02:13:05;20.20;66.50
37052;DHT22;22964;52.272;13.356;2023-07-31T02:15:30;20.20;66.50
37052;DHT22;22964;52.272;13.356;2023-07-31T02:17:56;20.20;66.70
37052;DHT22;22964;52.272;13.356;2023-07-31T02:20:22;20.10;66.60
37052;DHT22;22964;52.272;13.356;2023-07-31T02:22:48;20.10;66.80
37052;DHT22;22964;52.272;13.356;2023-07-31T02:25:13;20.10;67.00
37052;DHT22;22964;52.272;13.356;2023-07-31T02:27:39;20.10;67.10
37052;DHT22;22964;52.272;13.356;2023-07-31T02:30:05;20.10;67.00
37052;DHT22;22964;52.272;13.356;2023-07-31T02:32:31;20.10;67.40
37052;DHT22;22964;52.272;13.356;2023-07-31T02:34:57;20.10;67.40
37052;DHT22;22964;52.272;13.356;2023-07-31T02:37:25;20.10;67.50
37052;DHT22;22964;52.272;13.356;2023-07-31T02:39:51;20.10;67.50
37052;DHT22;22964;52.272;13.356;2023-07-31T02:42:17;20.10;67.50
37052;DHT22;22964;52.272;13.356;2023-07-31T02:44:43;20.10;67.70
37052;DHT22;22964;52.272;13.356;2023-07-31T02:47:08;20.10;67.70
37052;DHT22;22964;52.272;13.356;2023-07-31T02:49:34;20.10;67.80
37052;DHT22;22964;52.272;13.356;2023-07-31T02:52:00;20.10;67.90
37052;DHT22;22964;52.272;13.356;2023-07-31T02:54:25;20.10;67.80
37052;DHT22;22964;52.272;13.356;2023-07-31T02:56:51;20.10;67.90
37052;DHT22;22964;52.272;13.356;2023-07-31T02:59:17;20.10;67.80
37052;DHT22;22964;52.272;13.356;2023-07-31T03:01:44;20.10;68.10
37052;DHT22;22964;52.272;13.356;2023-07-31T03:04:09;20.10;68.00
37052;DHT22;22964;52.272;13.356;2023-07-31T03:06:35;20.20;68.20
37052;DHT22;22964;52.272;13.356;2023-07-31T03:09:01;20.20;68.20
37052;DHT22;22964;52.272;13.356;2023-07-31T03:11:27;20.20;68.10
37052;DHT22;22964;52.272;13.356;2023-07-31T03:13:53;20.20;68.30
37052;DHT22;22964;52.272;13.356;2023-07-31T03:16:19;20.20;68.30
37052;DHT22;22964;52.272;13.356;2023-07-31T03:18:45;20.20;68.30
37052;DHT22;22964;52.272;13.356;2023-07-31T03:21:10;20.20;68.40
37052;DHT22;22964;52.272;13.356;2023-07-31T03:23:36;20.20;68.40
37052;DHT22;22964;52.272;13.356;2023-07-31T03:26:06;20.10;68.30
37052;DHT22;22964;52.272;13.356;2023-07-31T03:28:32;20.20;68.90
37052;DHT22;22964;52.272;13.356;2023-07-31T03:30:58;20.20;68.80
37052;DHT22;22964;52.272;13.356;2023-07-31T03:33:23;20.20;68.70
37052;DHT22;22964;52.272;13.356;2023-07-31T03:35:50;20.10;68.70
37052;DHT22;22964;52.272;13.356;2023-07-31T03:38:16;20.20;68.90
37052;DHT22;22964;52.272;13.356;2023-07-31T03:40:41;20.10;68.80
37052;DHT22;22964;52.272;13.356;2023-07-31T03:43:07;20.10;68.90
37052;DHT22;22964;52.272;13.356;2023-07-31T03:45:33;20.10;69.00
37052;DHT22;22964;52.272;13.356;2023-07-31T03:47:59;20.10;69.10
37052;DHT22;22964;52.272;13.356;2023-07-31T03:50:25;20.10;69.20
37052;DHT22;22964;52.272;13.356;2023-07-31T03:52:51;20.10;69.30
37052;DHT22;22964;52.272;13.356;2023-07-31T03:55:17;20.10;69.30
37052;DHT22;22964;52.272;13.356;2023-07-31T03:57:43;20.20;69.40
37052;DHT22;22964;52.272;13.356;2023-07-31T04:00:10;20.10;69.50
37052;DHT22;22964;52.272;13.356;2023-07-31T04:02:38;20.20;69.60
37052;DHT22;22964;52.272;13.356;2023-07-31T04:05:04;20.10;69.60
37052;DHT22;22964;52.272;13.356;2023-07-31T04:07:30;20.20;69.70
37052;DHT22;22964;52.272;13.356;2023-07-31T04:09:57;20.20;69.80
37052;DHT22;22964;52.272;13.356;2023-07-31T04:12:24;20.20;70.00
37052;DHT22;22964;52.272;13.356;2023-07-31T04:14:49;20.20;69.80
37052;DHT22;22964;52.272;13.356;2023-07-31T04:17:15;20.20;69.80
37052;DHT22;22964;52.272;13.356;2023-07-31T04:19:42;20.20;70.00
37052;DHT22;22964;52.272;13.356;2023-07-31T04:22:08;20.20;70.00
37052;DHT22;22964;52.272;13.356;2023-07-31T04:24:34;20.20;70.00
37052;DHT22;22964;52.272;13.356;2023-07-31T04:26:59;20.20;70.10
37052;DHT22;22964;52.272;13.356;2023-07-31T04:29:25;20.20;70.10
37052;DHT22;22964;52.272;13.356;2023-07-31T04:31:51;20.20;70.20
37052;DHT22;22964;52.272;13.356;2023-07-31T04:34:17;20.20;70.20
37052;DHT22;22964;52.272;13.356;2023-07-31T04:36:42;20.20;70.20
37052;DHT22;22964;52.272;13.356;2023-07-31T04:39:08;20.20;70.40
37052;DHT22;22964;52.272;13.356;2023-07-31T04:41:34;20.20;70.30
37052;DHT22;22964;52.272;13.356;2023-07-31T04:43:59;20.20;70.30
37052;DHT22;22964;52.272;13.356;2023-07-31T04:46:25;20.30;70.40
37052;DHT22;22964;52.272;13.356;2023-07-31T04:48:51;20.30;70.50
37052;DHT22;22964;52.272;13.356;2023-07-31T04:51:16;20.30;70.60
37052;DHT22;22964;52.272;13.356;2023-07-31T04:53:42;20.30;70.70
37052;DHT22;22964;52.272;13.356;2023-07-31T04:56:08;20.30;70.70
37052;DHT22;22964;52.272;13.356;2023-07-31T04:58:33;20.30;70.80
37052;DHT22;22964;52.272;13.356;2023-07-31T05:00:59;20.30;70.90
37052;DHT22;22964;52.272;13.356;2023-07-31T05:03:25;20.30;71.00
37052;DHT22;22964;52.272;13.356;2023-07-31T05:05:51;20.30;71.10
37052;DHT22;22964;52.272;13.356;2023-07-31T05:08:17;20.30;71.00
37052;DHT22;22964;52.272;13.356;2023-07-31T05:10:45;20.40;71.20
37052;DHT22;22964;52.272;13.356;2023-07-31T05:13:11;20.40;72.00
37052;DHT22;22964;52.272;13.356;2023-07-31T05:15:37;20.40;71.10
37052;DHT22;22964;52.272;13.356;2023-07-31T05:18:02;20.40;71.00
37052;DHT22;22964;52.272;13.356;2023-07-31T05:20:28;20.40;70.90
37052;DHT22;22964;52.272;13.356;2023-07-31T05:22:54;20.40;70.80
37052;DHT22;22964;52.272;13.356;2023-07-31T05:25:19;20.40;70.90
37052;DHT22;22964;52.272;13.356;2023-07-31T05:27:45;20.50;71.00
37052;DHT22;22964;52.272;13.356;2023-07-31T05:30:11;20.50;71.10
37052;DHT22;22964;52.272;13.356;2023-07-31T05:32:37;20.50;71.30
37052;DHT22;22964;52.272;13.356;2023-07-31T05:35:02;20.40;71.30
37052;DHT22;22964;52.272;13.356;2023-07-31T05:37:28;20.50;71.40
37052;DHT22;22964;52.272;13.356;2023-07-31T05:39:54;20.50;71.60
37052;DHT22;22964;52.272;13.356;2023-07-31T05:42:20;20.50;71.60
37052;DHT22;22964;52.272;13.356;2023-07-31T05:44:45;20.50;71.60
37052;DHT22;22964;52.272;13.356;2023-07-31T05:47:12;20.50;71.60
37052;DHT22;22964;52.272;13.356;2023-07-31T05:49:38;20.50;71.50
37052;DHT22;22964;52.272;13.356;2023-07-31T05:52:04;20.50;71.70
37052;DHT22;22964;52.272;13.356;2023-07-31T05:54:30;20.50;71.90
37052;DHT22;22964;52.272;13.356;2023-07-31T05:56:55;20.50;72.10
37052;DHT22;22964;52.272;13.356;2023-07-31T05:59:21;20.50;72.10
37052;DHT22;22964;52.272;13.356;2023-07-31T06:01:47;20.50;72.40
37052;DHT22;22964;52.272;13.356;2023-07-31T06:04:12;20.50;72.60
37052;DHT22;22964;52.272;13.356;2023-07-31T06:06:38;20.50;72.70
37052;DHT22;22964;52.272;13.356;2023-07-31T06:09:04;20.50;72.70
37052;DHT22;22964;52.272;13.356;2023-07-31T06:11:29;20.50;73.10
37052;DHT22;22964;52.272;13.356;2023-07-31T06:13:55;20.50;73.10
37052;DHT22;22964;52.272;13.356;2023-07-31T06:16:21;20.50;73.80
37052;DHT22;22964;52.272;13.356;2023-07-31T06:18:47;20.50;73.60
37052;DHT22;22964;52.272;13.356;2023-07-31T06:21:13;20.50;73.70
37052;DHT22;22964;52.272;13.356;2023-07-31T06:23:38;20.50;73.90
37052;DHT22;22964;52.272;13.356;2023-07-31T06:26:04;20.60;73.80
37052;DHT22;22964;52.272;13.356;2023-07-31T06:28:31;20.60;74.00
37052;DHT22;22964;52.272;13.356;2023-07-31T06:30:58;20.60;74.10
37052;DHT22;22964;52.272;13.356;2023-07-31T06:33:24;20.70;74.00
37052;DHT22;22964;52.272;13.356;2023-07-31T06:35:50;20.70;74.00
37052;DHT22;22964;52.272;13.356;2023-07-31T06:38:18;20.70;73.90
37052;DHT22;22964;52.272;13.356;2023-07-31T06:40:44;20.80;73.90
37052;DHT22;22964;52.272;13.356;2023-07-31T06:43:10;20.80;73.90
37052;DHT22;22964;52.272;13.356;2023-07-31T06:45:36;20.80;73.90
37052;DHT22;22964;52.272;13.356;2023-07-31T06:48:03;20.90;74.00
37052;DHT22;22964;52.272;13.356;2023-07-31T06:50:32;20.90;73.80
37052;DHT22;22964;52.272;13.356;2023-07-31T06:52:59;21.00;73.70
37052;DHT22;22964;52.272;13.356;2023-07-31T06:55:26;21.00;73.60
37052;DHT22;22964;52.272;13.356;2023-07-31T06:57:54;21.00;73.50
37052;DHT22;22964;52.272;13.356;2023-07-31T07:00:21;21.10;73.40
37052;DHT22;22964;52.272;13.356;2023-07-31T07:02:48;21.10;73.50
37052;DHT22;22964;52.272;13.356;2023-07-31T07:05:14;21.20;73.50
37052;DHT22;22964;52.272;13.356;2023-07-31T07:07:40;21.20;73.50
37052;DHT22;22964;52.272;13.356;2023-07-31T07:10:07;21.20;73.50
37052;DHT22;22964;52.272;13.356;2023-07-31T07:12:33;21.30;73.30
37052;DHT22;22964;52.272;13.356;2023-07-31T07:14:59;21.30;73.20
37052;DHT22;22964;52.272;13.356;2023-07-31T07:17:26;21.30;73.10
37052;DHT22;22964;52.272;13.356;2023-07-31T07:19:52;21.40;73.10
37052;DHT22;22964;52.272;13.356;2023-07-31T07:22:18;21.40;73.00
37052;DHT22;22964;52.272;13.356;2023-07-31T07:24:43;21.40;72.90
37052;DHT22;22964;52.272;13.356;2023-07-31T07:27:09;21.40;72.70
37052;DHT22;22964;52.272;13.356;2023-07-31T07:29:35;21.50;72.60
37052;DHT22;22964;52.272;13.356;2023-07-31T07:32:01;21.50;73.20
37052;DHT22;22964;52.272;13.356;2023-07-31T07:34:27;21.50;72.30
37052;DHT22;22964;52.272;13.356;2023-07-31T07:36:54;21.40;72.20
37052;DHT22;22964;52.272;13.356;2023-07-31T07:39:19;21.40;72.20
37052;DHT22;22964;52.272;13.356;2023-07-31T07:41:46;21.40;72.60
37052;DHT22;22964;52.272;13.356;2023-07-31T07:44:13;21.40;72.70
37052;DHT22;22964;52.272;13.356;2023-07-31T07:46:39;21.40;72.70
37052;DHT22;22964;52.272;13.356;2023-07-31T07:49:04;21.40;72.90
37052;DHT22;22964;52.272;13.356;2023-07-31T07:51:30;21.40;73.30
37052;DHT22;22964;52.272;13.356;2023-07-31T07:53:57;21.40;73.50
37052;DHT22;22964;52.272;13.356;2023-07-31T07:56:25;21.40;73.70
37052;DHT22;22964;52.272;13.356;2023-07-31T07:58:51;21.40;73.70
37052;DHT22;22964;52.272;13.356;2023-07-31T08:01:17;21.40;73.70
37052;DHT22;22964;52.272;13.356;2023-07-31T08:03:42;21.40;73.90
37052;DHT22;22964;52.272;13.356;2023-07-31T08:06:09;21.40;74.00
37052;DHT22;22964;52.272;13.356;2023-07-31T08:08:35;21.40;74.30
37052;DHT22;22964;52.272;13.356;2023-07-31T08:11:01;21.40;74.10
37052;DHT22;22964;52.272;13.356;2023-07-31T08:13:27;21.40;74.10
37052;DHT22;22964;52.272;13.356;2023-07-31T08:15:53;21.40;74.10
37052;DHT22;22964;52.272;13.356;2023-07-31T08:18:18;21.40;74.10
37052;DHT22;22964;52.272;13.356;2023-07-31T08:20:44;21.40;75.30
37052;DHT22;22964;52.272;13.356;2023-07-31T08:23:10;21.40;74.70
37052;DHT22;22964;52.272;13.356;2023-07-31T08:25:36;21.40;75.10
37052;DHT22;22964;52.272;13.356;2023-07-31T08:28:03;21.50;75.10
37052;DHT22;22964;52.272;13.356;2023-07-31T08:30:28;21.50;75.40
37052;DHT22;22964;52.272;13.356;2023-07-31T08:32:54;21.50;75.20
37052;DHT22;22964;52.272;13.356;2023-07-31T08:35:20;21.60;75.40
37052;DHT22;22964;52.272;13.356;2023-07-31T08:37:45;21.60;75.20
37052;DHT22;22964;52.272;13.356;2023-07-31T08:40:11;21.60;74.80
37052;DHT22;22964;52.272;13.356;2023-07-31T08:42:47;21.70;74.60
37052;DHT22;22964;52.272;13.356;2023-07-31T08:45:17;21.70;74.90
37052;DHT22;22964;52.272;13.356;2023-07-31T08:47:51;21.70;74.60
37052;DHT22;22964;52.272;13.356;2023-07-31T08:50:18;21.70;75.10
37052;DHT22;22964;52.272;13.356;2023-07-31T08:52:46;21.70;74.80
37052;DHT22;22964;52.272;13.356;2023-07-31T08:55:13;21.80;75.00
37052;DHT22;22964;52.272;13.356;2023-07-31T08:57:39;21.80;74.60
37052;DHT22;22964;52.272;13.356;2023-07-31T09:00:07;21.80;74.60
37052;DHT22;22964;52.272;13.356;2023-07-31T09:05:17;21.80;74.50
37052;DHT22;22964;52.272;13.356;2023-07-31T09:07:45;21.80;74.00
37052;DHT22;22964;52.272;13.356;2023-07-31T09:10:12;21.80;74.10
37052;DHT22;22964;52.272;13.356;2023-07-31T09:12:39;21.80;73.80
37052;DHT22;22964;52.272;13.356;2023-07-31T09:15:05;21.70;73.80
37052;DHT22;22964;52.272;13.356;2023-07-31T09:17:32;21.70;74.20
37052;DHT22;22964;52.272;13.356;2023-07-31T09:19:58;21.70;74.50
37052;DHT22;22964;52.272;13.356;2023-07-31T09:22:37;21.70;75.00
37052;DHT22;22964;52.272;13.356;2023-07-31T09:25:23;21.70;75.40
37052;DHT22;22964;52.272;13.356;2023-07-31T09:28:06;21.80;76.50
37052;DHT22;22964;52.272;13.356;2023-07-31T09:30:44;21.90;76.60
37052;DHT22;22964;52.272;13.356;2023-07-31T09:33:10;22.00;76.60
37052;DHT22;22964;52.272;13.356;2023-07-31T09:35:36;22.10;76.30
37052;DHT22;22964;52.272;13.356;2023-07-31T09:38:05;22.20;76.40
37052;DHT22;22964;52.272;13.356;2023-07-31T09:40:39;22.30;75.90
37052;DHT22;22964;52.272;13.356;2023-07-31T09:43:10;22.40;75.60
37052;DHT22;22964;52.272;13.356;2023-07-31T09:45:38;22.50;74.90
37052;DHT22;22964;52.272;13.356;2023-07-31T09:50:38;22.60;74.40
37052;DHT22;22964;52.272;13.356;2023-07-31T09:53:05;22.70;74.40
37052;DHT22;22964;52.272;13.356;2023-07-31T09:55:31;22.70;74.00
37052;DHT22;22964;52.272;13.356;2023-07-31T09:57:57;22.80;73.90
37052;DHT22;22964;52.272;13.356;2023-07-31T10:00:24;22.80;73.50
37052;DHT22;22964;52.272;13.356;2023-07-31T10:02:53;22.80;73.30
37052;DHT22;22964;52.272;13.356;2023-07-31T10:05:19;22.80;73.20
37052;DHT22;22964;52.272;13.356;2023-07-31T10:07:53;22.90;73.10
37052;DHT22;22964;52.272;13.356;2023-07-31T10:10:21;22.90;73.40
37052;DHT22;22964;52.272;13.356;2023-07-31T10:12:52;22.90;73.20
37052;DHT22;22964;52.272;13.356;2023-07-31T10:15:19;22.90;73.30
37052;DHT22;22964;52.272;13.356;2023-07-31T10:17:47;22.90;73.10
37052;DHT22;22964;52.272;13.356;2023-07-31T10:20:15;22.90;73.30
37052;DHT22;22964;52.272;13.356;2023-07-31T10:22:45;22.90;73.20
37052;DHT22;22964;52.272;13.356;2023-07-31T10:25:12;22.90;73.40
37052;DHT22;22964;52.272;13.356;2023-07-31T10:27:41;22.90;73.50
37052;DHT22;22964;52.272;13.356;2023-07-31T10:30:16;22.90;73.70
37052;DHT22;22964;52.272;13.356;2023-07-31T10:32:44;22.90;73.80
37052;DHT22;22964;52.272;13.356;2023-07-31T10:35:11;22.90;73.70
37052;DHT22;22964;52.272;13.356;2023-07-31T10:37:39;23.00;74.00
37052;DHT22;22964;52.272;13.356;2023-07-31T10:45:02;23.20;75.30
37052;DHT22;22964;52.272;13.356;2023-07-31T10:47:28;23.30;74.80
37052;DHT22;22964;52.272;13.356;2023-07-31T10:52:38;23.60;72.60
37052;DHT22;22964;52.272;13.356;2023-07-31T10:55:15;23.80;72.70
37052;DHT22;22964;52.272;13.356;2023-07-31T10:57:46;23.90;71.60
37052;DHT22;22964;52.272;13.356;2023-07-31T11:03:03;24.10;69.20
37052;DHT22;22964;52.272;13.356;2023-07-31T11:08:28;24.40;66.40
37052;DHT22;22964;52.272;13.356;2023-07-31T11:11:14;24.50;67.60
37052;DHT22;22964;52.272;13.356;2023-07-31T11:13:50;24.60;66.10
37052;DHT22;22964;52.272;13.356;2023-07-31T11:16:17;24.60;66.80
37052;DHT22;22964;52.272;13.356;2023-07-31T11:18:44;24.80;66.40
37052;DHT22;22964;52.272;13.356;2023-07-31T11:21:14;24.80;65.10
37052;DHT22;22964;52.272;13.356;2023-07-31T11:23:41;24.80;64.70
37052;DHT22;22964;52.272;13.356;2023-07-31T11:26:07;24.90;65.30
37052;DHT22;22964;52.272;13.356;2023-07-31T11:28:34;25.00;64.90
37052;DHT22;22964;52.272;13.356;2023-07-31T11:31:01;25.00;63.60
37052;DHT22;22964;52.272;13.356;2023-07-31T11:33:27;25.00;63.30
37052;DHT22;22964;52.272;13.356;2023-07-31T11:35:52;25.00;63.20
37052;DHT22;22964;52.272;13.356;2023-07-31T11:38:29;25.00;63.30
37052;DHT22;22964;52.272;13.356;2023-07-31T11:40:57;24.90;62.60
37052;DHT22;22964;52.272;13.356;2023-07-31T11:43:23;25.00;63.40
37052;DHT22;22964;52.272;13.356;2023-07-31T11:45:55;25.00;63.40
37052;DHT22;22964;52.272;13.356;2023-07-31T11:48:31;24.90;62.70
37052;DHT22;22964;52.272;13.356;2023-07-31T11:51:05;24.90;62.90
37052;DHT22;22964;52.272;13.356;2023-07-31T11:53:52;24.90;62.20
37052;DHT22;22964;52.272;13.356;2023-07-31T11:56:20;24.80;61.00
37052;DHT22;22964;52.272;13.356;2023-07-31T11:58:47;24.80;62.10
37052;DHT22;22964;52.272;13.356;2023-07-31T12:01:21;24.80;62.10
37052;DHT22;22964;52.272;13.356;2023-07-31T12:03:48;24.70;61.70
37052;DHT22;22964;52.272;13.356;2023-07-31T12:06:14;24.70;62.50
37052;DHT22;22964;52.272;13.356;2023-07-31T12:08:40;24.70;62.60
37052;DHT22;22964;52.272;13.356;2023-07-31T12:11:08;24.70;62.40
37052;DHT22;22964;52.272;13.356;2023-07-31T12:13:37;24.70;62.30
37052;DHT22;22964;52.272;13.356;2023-07-31T12:16:03;24.70;62.40
37052;DHT22;22964;52.272;13.356;2023-07-31T12:18:34;24.70;62.50
37052;DHT22;22964;52.272;13.356;2023-07-31T12:21:02;24.70;61.20
37052;DHT22;22964;52.272;13.356;2023-07-31T12:23:31;24.80;61.90
37052;DHT22;22964;52.272;13.356;2023-07-31T12:26:08;24.80;61.50
37052;DHT22;22964;52.272;13.356;2023-07-31T12:28:56;24.80;60.00
37052;DHT22;22964;52.272;13.356;2023-07-31T12:31:22;24.80;60.90
37052;DHT22;22964;52.272;13.356;2023-07-31T12:33:49;24.70;61.30
37052;DHT22;22964;52.272;13.356;2023-07-31T12:36:20;24.70;60.80
37052;DHT22;22964;52.272;13.356;2023-07-31T12:38:46;24.80;60.40
37052;DHT22;22964;52.272;13.356;2023-07-31T12:41:12;24.70;60.80
37052;DHT22;22964;52.272;13.356;2023-07-31T12:43:40;24.70;60.60
37052;DHT22;22964;52.272;13.356;2023-07-31T12:46:06;24.70;60.70
37052;DHT22;22964;52.272;13.356;2023-07-31T12:48:37;24.70;61.10
37052;DHT22;22964;52.272;13.356;2023-07-31T12:51:03;24.70;61.30
37052;DHT22;22964;52.272;13.356;2023-07-31T12:53:29;24.70;61.90
37052;DHT22;22964;52.272;13.356;2023-07-31T12:55:55;24.80;61.70
37052;DHT22;22964;52.272;13.356;2023-07-31T12:58:21;24.80;61.50
37052;DHT22;22964;52.272;13.356;2023-07-31T13:00:47;24.80;61.80
37052;DHT22;22964;52.272;13.356;2023-07-31T13:03:13;24.80;62.00
37052;DHT22;22964;52.272;13.356;2023-07-31T13:05:38;24.80;62.20
37052;DHT22;22964;52.272;13.356;2023-07-31T13:08:04;24.90;62.10
37052;DHT22;22964;52.272;13.356;2023-07-31T13:10:30;25.00;61.80
37052;DHT22;22964;52.272;13.356;2023-07-31T13:12:56;25.00;61.20
37052;DHT22;22964;52.272;13.356;2023-07-31T13:15:22;25.10;60.90
37052;DHT22;22964;52.272;13.356;2023-07-31T13:17:47;25.10;60.30
37052;DHT22;22964;52.272;13.356;2023-07-31T13:20:13;25.10;60.40
37052;DHT22;22964;52.272;13.356;2023-07-31T13:22:39;25.10;60.60
37052;DHT22;22964;52.272;13.356;2023-07-31T13:25:05;25.20;60.60
37052;DHT22;22964;52.272;13.356;2023-07-31T13:27:31;25.10;60.10
37052;DHT22;22964;52.272;13.356;2023-07-31T13:29:57;25.20;60.50
37052;DHT22;22964;52.272;13.356;2023-07-31T13:32:23;25.10;60.60
37052;DHT22;22964;52.272;13.356;2023-07-31T13:34:49;25.20;60.70
37052;DHT22;22964;52.272;13.356;2023-07-31T13:37:15;25.30;60.80
37052;DHT22;22964;52.272;13.356;2023-07-31T13:39:41;25.30;61.20
37052;DHT22;22964;52.272;13.356;2023-07-31T13:42:08;25.30;61.90
37052;DHT22;22964;52.272;13.356;2023-07-31T13:44:34;25.40;62.50
37052;DHT22;22964;52.272;13.356;2023-07-31T13:47:01;25.50;62.20
37052;DHT22;22964;52.272;13.356;2023-07-31T13:49:27;25.60;61.60
37052;DHT22;22964;52.272;13.356;2023-07-31T13:51:53;25.70;60.80
37052;DHT22;22964;52.272;13.356;2023-07-31T13:54:19;25.80;61.10
37052;DHT22;22964;52.272;13.356;2023-07-31T13:56:44;25.90;60.90
37052;DHT22;22964;52.272;13.356;2023-07-31T13:59:10;26.00;60.60
37052;DHT22;22964;52.272;13.356;2023-07-31T14:01:36;26.10;60.20
37052;DHT22;22964;52.272;13.356;2023-07-31T14:04:02;26.10;60.00
37052;DHT22;22964;52.272;13.356;2023-07-31T14:06:28;26.20;60.00
37052;DHT22;22964;52.272;13.356;2023-07-31T14:08:54;26.30;59.80
37052;DHT22;22964;52.272;13.356;2023-07-31T14:11:24;26.40;59.70
37052;DHT22;22964;52.272;13.356;2023-07-31T14:13:50;26.40;59.50
37052;DHT22;22964;52.272;13.356;2023-07-31T14:16:16;26.40;59.10
37052;DHT22;22964;52.272;13.356;2023-07-31T14:18:43;26.50;58.70
37052;DHT22;22964;52.272;13.356;2023-07-31T14:21:08;26.50;59.00
37052;DHT22;22964;52.272;13.356;2023-07-31T14:23:34;26.50;58.70
37052;DHT22;22964;52.272;13.356;2023-07-31T14:26:00;26.50;58.50
37052;DHT22;22964;52.272;13.356;2023-07-31T14:28:26;26.50;58.50
37052;DHT22;22964;52.272;13.356;2023-07-31T14:30:51;26.50;58.80
37052;DHT22;22964;52.272;13.356;2023-07-31T14:33:17;26.50;58.90
37052;DHT22;22964;52.272;13.356;2023-07-31T14:35:43;26.50;58.70
37052;DHT22;22964;52.272;13.356;2023-07-31T14:38:09;26.60;58.00
37052;DHT22;22964;52.272;13.356;2023-07-31T14:40:34;26.70;58.40
37052;DHT22;22964;52.272;13.356;2023-07-31T14:43:00;26.70;58.30
37052;DHT22;22964;52.272;13.356;2023-07-31T14:45:26;26.80;57.60
37052;DHT22;22964;52.272;13.356;2023-07-31T14:47:51;26.90;57.10
37052;DHT22;22964;52.272;13.356;2023-07-31T14:50:17;26.90;56.60
37052;DHT22;22964;52.272;13.356;2023-07-31T14:52:43;26.90;56.30
37052;DHT22;22964;52.272;13.356;2023-07-31T14:55:09;26.90;55.90
37052;DHT22;22964;52.272;13.356;2023-07-31T14:57:35;26.90;55.90
37052;DHT22;22964;52.272;13.356;2023-07-31T15:00:00;26.90;55.50
37052;DHT22;22964;52.272;13.356;2023-07-31T15:02:26;27.00;55.00
37052;DHT22;22964;52.272;13.356;2023-07-31T15:04:53;26.90;54.70
37052;DHT22;22964;52.272;13.356;2023-07-31T15:07:18;26.90;54.20
37052;DHT22;22964;52.272;13.356;2023-07-31T15:09:44;26.80;54.30
37052;DHT22;22964;52.272;13.356;2023-07-31T15:12:10;26.80;54.70
37052;DHT22;22964;52.272;13.356;2023-07-31T15:14:35;26.80;54.70
37052;DHT22;22964;52.272;13.356;2023-07-31T15:17:01;26.70;54.80
37052;DHT22;22964;52.272;13.356;2023-07-31T15:19:27;26.70;54.80
37052;DHT22;22964;52.272;13.356;2023-07-31T15:21:54;26.60;54.70
37052;DHT22;22964;52.272;13.356;2023-07-31T15:24:20;26.60;54.50
37052;DHT22;22964;52.272;13.356;2023-07-31T15:26:46;26.60;54.30
37052;DHT22;22964;52.272;13.356;2023-07-31T15:29:12;26.60;54.40
37052;DHT22;22964;52.272;13.356;2023-07-31T15:31:43;26.60;54.50
37052;DHT22;22964;52.272;13.356;2023-07-31T15:34:09;26.70;54.50
37052;DHT22;22964;52.272;13.356;2023-07-31T15:36:34;26.70;54.30
37052;DHT22;22964;52.272;13.356;2023-07-31T15:39:00;26.70;54.50